Aviation Digital Data Service (ADDS)

Output produced by METARs form (1925 UTC 18 April 2019)
found at http://www.aviationweather.gov/metar/data/
 
Forecast for: PACD (COLD BAY , AK, US)
Text: PACD 181720Z 1818/1918 28011KT 3SM -SHSN BR BKN014 OVC020
Forecast period: 1800 UTC 18 April 2019 to 0600 UTC 19 April 2019
Forecast type: FROM: standard forecast or significant change
Winds: from the W (280 degrees) at 13 MPH (11 knots; 5.7 m/s)
Visibility: 3 miles (5 km)
Ceiling: 1400 feet AGL
Clouds: broken clouds at 1400 feet AGL
overcast cloud deck at 2000 feet AGL
Weather: -SHSN BR  (light snow showers, mist)
Text: TEMPO 1818/1822 3/4SM -SHSN BR BKN008
Forecast period: 1800 to 2200 UTC 18 April 2019
Forecast type: TEMPORARY: The following changes expected for less than half the time period
Visibility: 0.75 miles (1.21 km)
Ceiling: 800 feet AGL
Clouds: broken clouds at 800 feet AGL
Weather: -SHSN BR  (light snow showers, mist)
Text: FM190600 29008KT P6SM FEW025 BKN045
Forecast period: 0600 to 1800 UTC 19 April 2019
Forecast type: FROM: standard forecast or significant change
Winds: from the WNW (290 degrees) at 9 MPH (8 knots; 4.1 m/s)
Visibility: 6 or more miles 10+ km)
Ceiling: 4500 feet AGL
Clouds: few clouds at 2500 feet AGL
broken clouds at 4500 feet AGL
Weather: no significant weather forecast for this period